sensor_id;sensor_type;location;lat;lon;timestamp;P1;durP1;ratioP1;P2;durP2;ratioP2
2544;SDS011;36212;48.838;9.142;2023-03-13T00:00:13;8.32;;;4.55;;
2544;SDS011;36212;48.838;9.142;2023-03-13T00:02:47;8.88;;;4.15;;
2544;SDS011;36212;48.838;9.142;2023-03-13T00:05:20;7.85;;;4.53;;
2544;SDS011;36212;48.838;9.142;2023-03-13T00:07:53;6.45;;;3.90;;
2544;SDS011;36212;48.838;9.142;2023-03-13T00:10:25;7.78;;;3.90;;
2544;SDS011;36212;48.838;9.142;2023-03-13T00:12:57;10.48;;;4.28;;
2544;SDS011;36212;48.838;9.142;2023-03-13T00:15:29;10.10;;;3.90;;
2544;SDS011;36212;48.838;9.142;2023-03-13T00:21:16;7.10;;;4.50;;
2544;SDS011;36212;48.838;9.142;2023-03-13T00:23:52;7.07;;;4.50;;
2544;SDS011;36212;48.838;9.142;2023-03-13T00:26:28;6.53;;;4.03;;
2544;SDS011;36212;48.838;9.142;2023-03-13T00:29:01;5.20;;;4.25;;
2544;SDS011;36212;48.838;9.142;2023-03-13T00:31:33;6.97;;;3.42;;
2544;SDS011;36212;48.838;9.142;2023-03-13T00:34:05;7.57;;;4.05;;
2544;SDS011;36212;48.838;9.142;2023-03-13T00:36:38;5.80;;;3.70;;
2544;SDS011;36212;48.838;9.142;2023-03-13T00:39:10;6.15;;;3.80;;
2544;SDS011;36212;48.838;9.142;2023-03-13T00:41:42;7.65;;;4.20;;
2544;SDS011;36212;48.838;9.142;2023-03-13T00:44:15;6.60;;;3.30;;
2544;SDS011;36212;48.838;9.142;2023-03-13T00:46:47;9.13;;;4.28;;
2544;SDS011;36212;48.838;9.142;2023-03-13T00:49:19;6.88;;;4.30;;
2544;SDS011;36212;48.838;9.142;2023-03-13T00:51:51;6.47;;;4.60;;
2544;SDS011;36212;48.838;9.142;2023-03-13T00:54:23;5.45;;;4.10;;
2544;SDS011;36212;48.838;9.142;2023-03-13T00:56:55;9.60;;;3.88;;
2544;SDS011;36212;48.838;9.142;2023-03-13T00:59:27;6.10;;;4.15;;
2544;SDS011;36212;48.838;9.142;2023-03-13T01:01:59;4.53;;;3.40;;
2544;SDS011;36212;48.838;9.142;2023-03-13T01:04:31;11.23;;;3.67;;
2544;SDS011;36212;48.838;9.142;2023-03-13T01:07:04;8.63;;;3.90;;
2544;SDS011;36212;48.838;9.142;2023-03-13T01:09:36;8.75;;;4.03;;
2544;SDS011;36212;48.838;9.142;2023-03-13T01:12:08;6.05;;;3.72;;
2544;SDS011;36212;48.838;9.142;2023-03-13T01:14:40;10.38;;;4.53;;
2544;SDS011;36212;48.838;9.142;2023-03-13T01:17:12;10.85;;;3.90;;
2544;SDS011;36212;48.838;9.142;2023-03-13T01:19:44;7.40;;;3.67;;
2544;SDS011;36212;48.838;9.142;2023-03-13T01:22:16;5.93;;;3.63;;
2544;SDS011;36212;48.838;9.142;2023-03-13T01:24:48;6.40;;;3.30;;
2544;SDS011;36212;48.838;9.142;2023-03-13T01:27:23;8.88;;;3.78;;
2544;SDS011;36212;48.838;9.142;2023-03-13T01:29:55;5.35;;;3.58;;
2544;SDS011;36212;48.838;9.142;2023-03-13T01:32:27;6.07;;;3.13;;
2544;SDS011;36212;48.838;9.142;2023-03-13T01:35:02;8.15;;;3.88;;
2544;SDS011;36212;48.838;9.142;2023-03-13T01:37:34;5.97;;;3.78;;
2544;SDS011;36212;48.838;9.142;2023-03-13T01:40:06;8.95;;;4.40;;
2544;SDS011;36212;48.838;9.142;2023-03-13T01:42:53;4.88;;;3.60;;
2544;SDS011;36212;48.838;9.142;2023-03-13T01:57:32;5.70;;;2.75;;
2544;SDS011;36212;48.838;9.142;2023-03-13T02:00:28;6.07;;;3.20;;
2544;SDS011;36212;48.838;9.142;2023-03-13T02:03:06;5.45;;;3.65;;
2544;SDS011;36212;48.838;9.142;2023-03-13T02:05:46;6.45;;;2.97;;
2544;SDS011;36212;48.838;9.142;2023-03-13T02:08:22;9.40;;;3.40;;
2544;SDS011;36212;48.838;9.142;2023-03-13T02:14:19;4.55;;;2.95;;
2544;SDS011;36212;48.838;9.142;2023-03-13T02:16:56;4.63;;;3.25;;
2544;SDS011;36212;48.838;9.142;2023-03-13T02:19:44;8.30;;;3.35;;
2544;SDS011;36212;48.838;9.142;2023-03-13T02:22:23;2.60;;;2.40;;
2544;SDS011;36212;48.838;9.142;2023-03-13T02:28:04;4.35;;;3.30;;
2544;SDS011;36212;48.838;9.142;2023-03-13T02:30:47;5.75;;;3.15;;
2544;SDS011;36212;48.838;9.142;2023-03-13T02:33:31;5.00;;;2.65;;
2544;SDS011;36212;48.838;9.142;2023-03-13T02:36:09;10.13;;;3.15;;
2544;SDS011;36212;48.838;9.142;2023-03-13T02:38:55;5.95;;;2.90;;
2544;SDS011;36212;48.838;9.142;2023-03-13T02:41:34;5.10;;;3.63;;
2544;SDS011;36212;48.838;9.142;2023-03-13T02:44:07;2.42;;;2.22;;
2544;SDS011;36212;48.838;9.142;2023-03-13T02:46:43;5.20;;;2.35;;
2544;SDS011;36212;48.838;9.142;2023-03-13T02:49:26;4.80;;;2.50;;
2544;SDS011;36212;48.838;9.142;2023-03-13T02:55:37;5.43;;;2.60;;
2544;SDS011;36212;48.838;9.142;2023-03-13T02:58:11;2.80;;;2.45;;
2544;SDS011;36212;48.838;9.142;2023-03-13T03:00:44;5.63;;;3.67;;
2544;SDS011;36212;48.838;9.142;2023-03-13T03:03:16;6.35;;;2.92;;
2544;SDS011;36212;48.838;9.142;2023-03-13T03:05:48;4.00;;;2.38;;
2544;SDS011;36212;48.838;9.142;2023-03-13T03:08:20;3.22;;;2.55;;
2544;SDS011;36212;48.838;9.142;2023-03-13T03:10:52;4.88;;;2.70;;
2544;SDS011;36212;48.838;9.142;2023-03-13T03:13:24;3.00;;;1.88;;
2544;SDS011;36212;48.838;9.142;2023-03-13T03:15:57;3.33;;;2.47;;
2544;SDS011;36212;48.838;9.142;2023-03-13T03:18:29;4.55;;;2.40;;
2544;SDS011;36212;48.838;9.142;2023-03-13T03:21:04;4.00;;;2.53;;
2544;SDS011;36212;48.838;9.142;2023-03-13T03:23:37;4.95;;;2.40;;
2544;SDS011;36212;48.838;9.142;2023-03-13T03:26:10;2.97;;;2.20;;
2544;SDS011;36212;48.838;9.142;2023-03-13T03:28:42;5.50;;;2.33;;
2544;SDS011;36212;48.838;9.142;2023-03-13T03:31:14;4.60;;;2.22;;
2544;SDS011;36212;48.838;9.142;2023-03-13T03:33:47;4.15;;;2.10;;
2544;SDS011;36212;48.838;9.142;2023-03-13T03:36:21;3.88;;;2.50;;
2544;SDS011;36212;48.838;9.142;2023-03-13T03:38:54;2.75;;;2.17;;
2544;SDS011;36212;48.838;9.142;2023-03-13T03:41:26;3.45;;;2.30;;
2544;SDS011;36212;48.838;9.142;2023-03-13T03:43:58;2.30;;;2.10;;
2544;SDS011;36212;48.838;9.142;2023-03-13T03:46:30;3.72;;;2.10;;
2544;SDS011;36212;48.838;9.142;2023-03-13T03:49:03;2.38;;;2.10;;
2544;SDS011;36212;48.838;9.142;2023-03-13T03:51:35;2.95;;;2.15;;
2544;SDS011;36212;48.838;9.142;2023-03-13T03:54:07;4.97;;;2.50;;
2544;SDS011;36212;48.838;9.142;2023-03-13T03:56:39;4.30;;;2.95;;
2544;SDS011;36212;48.838;9.142;2023-03-13T03:59:11;2.63;;;1.85;;
2544;SDS011;36212;48.838;9.142;2023-03-13T04:01:44;6.13;;;2.22;;
2544;SDS011;36212;48.838;9.142;2023-03-13T04:04:16;2.50;;;2.15;;
2544;SDS011;36212;48.838;9.142;2023-03-13T04:06:48;2.55;;;2.35;;
2544;SDS011;36212;48.838;9.142;2023-03-13T04:09:20;2.90;;;2.25;;
2544;SDS011;36212;48.838;9.142;2023-03-13T04:11:52;4.22;;;2.17;;
2544;SDS011;36212;48.838;9.142;2023-03-13T04:14:24;3.38;;;2.10;;
2544;SDS011;36212;48.838;9.142;2023-03-13T04:16:56;3.70;;;1.75;;
2544;SDS011;36212;48.838;9.142;2023-03-13T04:19:28;2.13;;;1.92;;
2544;SDS011;36212;48.838;9.142;2023-03-13T04:22:00;2.17;;;1.77;;
2544;SDS011;36212;48.838;9.142;2023-03-13T04:24:33;1.88;;;1.75;;
2544;SDS011;36212;48.838;9.142;2023-03-13T04:27:05;2.13;;;1.58;;
2544;SDS011;36212;48.838;9.142;2023-03-13T04:29:37;1.60;;;1.50;;
2544;SDS011;36212;48.838;9.142;2023-03-13T04:32:09;3.20;;;1.77;;
2544;SDS011;36212;48.838;9.142;2023-03-13T04:34:41;1.40;;;1.30;;
2544;SDS011;36212;48.838;9.142;2023-03-13T04:37:13;1.42;;;1.33;;
2544;SDS011;36212;48.838;9.142;2023-03-13T04:39:45;1.65;;;1.55;;
2544;SDS011;36212;48.838;9.142;2023-03-13T04:42:18;2.67;;;1.30;;
2544;SDS011;36212;48.838;9.142;2023-03-13T04:44:50;1.35;;;1.25;;
2544;SDS011;36212;48.838;9.142;2023-03-13T04:47:22;1.45;;;1.35;;
2544;SDS011;36212;48.838;9.142;2023-03-13T04:49:54;1.80;;;1.45;;
2544;SDS011;36212;48.838;9.142;2023-03-13T04:52:26;1.42;;;1.20;;
2544;SDS011;36212;48.838;9.142;2023-03-13T04:54:58;1.55;;;1.45;;
2544;SDS011;36212;48.838;9.142;2023-03-13T04:57:30;1.60;;;1.50;;
2544;SDS011;36212;48.838;9.142;2023-03-13T05:00:03;1.55;;;1.45;;
2544;SDS011;36212;48.838;9.142;2023-03-13T05:02:39;1.38;;;1.17;;
2544;SDS011;36212;48.838;9.142;2023-03-13T05:05:12;1.75;;;1.33;;
2544;SDS011;36212;48.838;9.142;2023-03-13T05:07:44;1.60;;;1.50;;
2544;SDS011;36212;48.838;9.142;2023-03-13T05:10:16;1.70;;;1.60;;
2544;SDS011;36212;48.838;9.142;2023-03-13T05:12:48;2.20;;;1.30;;
2544;SDS011;36212;48.838;9.142;2023-03-13T05:15:20;1.50;;;1.40;;
2544;SDS011;36212;48.838;9.142;2023-03-13T05:17:52;1.90;;;1.40;;
2544;SDS011;36212;48.838;9.142;2023-03-13T05:20:25;1.50;;;1.40;;
2544;SDS011;36212;48.838;9.142;2023-03-13T05:22:57;1.40;;;1.30;;
2544;SDS011;36212;48.838;9.142;2023-03-13T05:25:29;1.25;;;1.15;;
2544;SDS011;36212;48.838;9.142;2023-03-13T05:28:01;1.25;;;1.15;;
2544;SDS011;36212;48.838;9.142;2023-03-13T05:30:33;1.50;;;1.40;;
2544;SDS011;36212;48.838;9.142;2023-03-13T05:33:06;1.38;;;1.27;;
2544;SDS011;36212;48.838;9.142;2023-03-13T05:35:38;1.20;;;1.10;;
2544;SDS011;36212;48.838;9.142;2023-03-13T05:38:11;1.58;;;1.20;;
2544;SDS011;36212;48.838;9.142;2023-03-13T05:40:44;1.40;;;1.30;;
2544;SDS011;36212;48.838;9.142;2023-03-13T05:43:16;2.55;;;1.30;;
2544;SDS011;36212;48.838;9.142;2023-03-13T05:45:48;1.20;;;1.10;;
2544;SDS011;36212;48.838;9.142;2023-03-13T05:48:20;1.30;;;1.20;;
2544;SDS011;36212;48.838;9.142;2023-03-13T05:50:52;1.52;;;1.40;;
2544;SDS011;36212;48.838;9.142;2023-03-13T05:53:24;1.35;;;1.25;;
2544;SDS011;36212;48.838;9.142;2023-03-13T05:55:57;1.00;;;1.00;;
2544;SDS011;36212;48.838;9.142;2023-03-13T05:58:29;1.20;;;1.10;;
2544;SDS011;36212;48.838;9.142;2023-03-13T06:01:05;1.42;;;1.30;;
2544;SDS011;36212;48.838;9.142;2023-03-13T06:03:40;1.70;;;1.10;;
2544;SDS011;36212;48.838;9.142;2023-03-13T06:06:12;1.40;;;1.25;;
2544;SDS011;36212;48.838;9.142;2023-03-13T06:08:44;1.75;;;1.23;;
2544;SDS011;36212;48.838;9.142;2023-03-13T06:11:16;1.30;;;1.20;;
2544;SDS011;36212;48.838;9.142;2023-03-13T06:13:52;1.30;;;1.20;;
2544;SDS011;36212;48.838;9.142;2023-03-13T06:16:24;1.88;;;1.30;;
2544;SDS011;36212;48.838;9.142;2023-03-13T06:18:56;1.42;;;1.33;;
2544;SDS011;36212;48.838;9.142;2023-03-13T06:21:29;2.05;;;1.20;;
2544;SDS011;36212;48.838;9.142;2023-03-13T06:24:01;1.45;;;1.23;;
2544;SDS011;36212;48.838;9.142;2023-03-13T06:26:34;1.58;;;1.20;;
2544;SDS011;36212;48.838;9.142;2023-03-13T06:29:06;1.80;;;1.40;;
2544;SDS011;36212;48.838;9.142;2023-03-13T06:31:39;1.90;;;1.30;;
2544;SDS011;36212;48.838;9.142;2023-03-13T06:34:12;1.55;;;1.10;;
2544;SDS011;36212;48.838;9.142;2023-03-13T06:36:45;1.15;;;1.05;;
2544;SDS011;36212;48.838;9.142;2023-03-13T06:39:17;1.70;;;1.40;;
2544;SDS011;36212;48.838;9.142;2023-03-13T06:41:49;1.25;;;1.13;;
2544;SDS011;36212;48.838;9.142;2023-03-13T06:44:21;1.27;;;1.17;;
2544;SDS011;36212;48.838;9.142;2023-03-13T06:46:53;1.10;;;1.10;;
2544;SDS011;36212;48.838;9.142;2023-03-13T06:49:26;1.60;;;1.50;;
2544;SDS011;36212;48.838;9.142;2023-03-13T06:51:58;1.45;;;1.10;;
2544;SDS011;36212;48.838;9.142;2023-03-13T06:54:31;1.77;;;1.30;;
2544;SDS011;36212;48.838;9.142;2023-03-13T06:57:03;1.05;;;1.00;;
2544;SDS011;36212;48.838;9.142;2023-03-13T06:59:35;1.98;;;1.65;;
2544;SDS011;36212;48.838;9.142;2023-03-13T07:02:11;1.20;;;1.10;;
2544;SDS011;36212;48.838;9.142;2023-03-13T07:04:44;1.85;;;1.40;;
2544;SDS011;36212;48.838;9.142;2023-03-13T07:07:17;1.80;;;1.10;;
2544;SDS011;36212;48.838;9.142;2023-03-13T07:10:03;1.15;;;1.05;;
2544;SDS011;36212;48.838;9.142;2023-03-13T07:12:36;1.27;;;1.00;;
2544;SDS011;36212;48.838;9.142;2023-03-13T07:15:09;1.80;;;1.15;;
2544;SDS011;36212;48.838;9.142;2023-03-13T07:17:42;1.30;;;1.20;;
2544;SDS011;36212;48.838;9.142;2023-03-13T07:20:14;1.30;;;1.20;;
2544;SDS011;36212;48.838;9.142;2023-03-13T07:22:51;1.20;;;1.10;;
2544;SDS011;36212;48.838;9.142;2023-03-13T07:25:24;1.20;;;1.10;;
2544;SDS011;36212;48.838;9.142;2023-03-13T07:27:56;1.30;;;1.20;;
2544;SDS011;36212;48.838;9.142;2023-03-13T07:30:30;1.40;;;1.30;;
2544;SDS011;36212;48.838;9.142;2023-03-13T07:33:02;1.42;;;1.33;;
2544;SDS011;36212;48.838;9.142;2023-03-13T07:35:34;1.42;;;1.33;;
2544;SDS011;36212;48.838;9.142;2023-03-13T07:38:07;3.25;;;1.27;;
2544;SDS011;36212;48.838;9.142;2023-03-13T07:40:46;1.27;;;1.20;;
2544;SDS011;36212;48.838;9.142;2023-03-13T07:43:24;1.50;;;1.17;;
2544;SDS011;36212;48.838;9.142;2023-03-13T07:46:04;2.40;;;1.40;;
2544;SDS011;36212;48.838;9.142;2023-03-13T07:48:40;1.10;;;1.10;;
2544;SDS011;36212;48.838;9.142;2023-03-13T07:51:14;1.40;;;1.30;;
2544;SDS011;36212;48.838;9.142;2023-03-13T07:54:04;2.10;;;1.20;;
2544;SDS011;36212;48.838;9.142;2023-03-13T07:56:37;1.40;;;1.30;;
2544;SDS011;36212;48.838;9.142;2023-03-13T07:59:25;1.23;;;1.10;;
2544;SDS011;36212;48.838;9.142;2023-03-13T08:01:57;1.30;;;1.20;;
2544;SDS011;36212;48.838;9.142;2023-03-13T08:04:30;1.30;;;1.20;;
2544;SDS011;36212;48.838;9.142;2023-03-13T08:07:06;1.20;;;1.10;;
2544;SDS011;36212;48.838;9.142;2023-03-13T08:09:40;1.33;;;1.23;;
2544;SDS011;36212;48.838;9.142;2023-03-13T08:12:12;1.30;;;1.20;;
2544;SDS011;36212;48.838;9.142;2023-03-13T08:14:44;1.20;;;1.10;;
2544;SDS011;36212;48.838;9.142;2023-03-13T08:17:17;1.65;;;1.17;;
2544;SDS011;36212;48.838;9.142;2023-03-13T08:19:49;2.10;;;1.50;;
2544;SDS011;36212;48.838;9.142;2023-03-13T08:22:21;1.30;;;1.20;;
2544;SDS011;36212;48.838;9.142;2023-03-13T08:24:53;1.40;;;1.30;;
2544;SDS011;36212;48.838;9.142;2023-03-13T08:27:27;1.40;;;1.30;;
2544;SDS011;36212;48.838;9.142;2023-03-13T08:30:00;1.55;;;1.17;;
2544;SDS011;36212;48.838;9.142;2023-03-13T08:32:33;1.52;;;1.42;;
2544;SDS011;36212;48.838;9.142;2023-03-13T08:35:06;2.55;;;1.20;;
2544;SDS011;36212;48.838;9.142;2023-03-13T08:37:39;1.63;;;1.40;;
2544;SDS011;36212;48.838;9.142;2023-03-13T08:40:11;1.40;;;1.25;;
2544;SDS011;36212;48.838;9.142;2023-03-13T08:42:44;2.08;;;1.30;;
2544;SDS011;36212;48.838;9.142;2023-03-13T08:45:16;1.35;;;1.25;;
2544;SDS011;36212;48.838;9.142;2023-03-13T08:47:51;1.17;;;1.08;;
2544;SDS011;36212;48.838;9.142;2023-03-13T08:50:24;1.40;;;1.30;;
2544;SDS011;36212;48.838;9.142;2023-03-13T08:52:56;1.45;;;1.35;;
2544;SDS011;36212;48.838;9.142;2023-03-13T08:55:28;1.48;;;1.38;;
2544;SDS011;36212;48.838;9.142;2023-03-13T08:58:00;2.00;;;1.52;;
2544;SDS011;36212;48.838;9.142;2023-03-13T09:00:32;1.30;;;1.20;;
2544;SDS011;36212;48.838;9.142;2023-03-13T09:03:05;1.48;;;1.20;;
2544;SDS011;36212;48.838;9.142;2023-03-13T09:05:37;1.50;;;1.40;;
2544;SDS011;36212;48.838;9.142;2023-03-13T09:08:27;1.50;;;1.40;;
2544;SDS011;36212;48.838;9.142;2023-03-13T09:11:02;1.30;;;1.20;;
2544;SDS011;36212;48.838;9.142;2023-03-13T09:13:41;1.30;;;1.20;;
2544;SDS011;36212;48.838;9.142;2023-03-13T09:16:21;1.90;;;1.40;;
2544;SDS011;36212;48.838;9.142;2023-03-13T09:18:57;1.60;;;1.50;;
2544;SDS011;36212;48.838;9.142;2023-03-13T09:21:31;2.38;;;1.40;;
2544;SDS011;36212;48.838;9.142;2023-03-13T09:24:05;1.50;;;1.40;;
2544;SDS011;36212;48.838;9.142;2023-03-13T09:26:38;1.50;;;1.40;;
2544;SDS011;36212;48.838;9.142;2023-03-13T09:29:22;1.50;;;1.40;;
2544;SDS011;36212;48.838;9.142;2023-03-13T09:31:54;1.60;;;1.50;;
2544;SDS011;36212;48.838;9.142;2023-03-13T09:34:26;1.70;;;1.60;;
2544;SDS011;36212;48.838;9.142;2023-03-13T09:36:59;1.60;;;1.50;;
2544;SDS011;36212;48.838;9.142;2023-03-13T09:39:31;1.85;;;1.70;;
2544;SDS011;36212;48.838;9.142;2023-03-13T09:42:11;1.67;;;1.58;;
2544;SDS011;36212;48.838;9.142;2023-03-13T09:45:01;2.35;;;1.60;;
2544;SDS011;36212;48.838;9.142;2023-03-13T09:47:49;2.58;;;1.50;;
2544;SDS011;36212;48.838;9.142;2023-03-13T09:50:32;1.70;;;1.60;;
2544;SDS011;36212;48.838;9.142;2023-03-13T09:53:18;1.77;;;1.67;;
2544;SDS011;36212;48.838;9.142;2023-03-13T09:56:36;1.85;;;1.75;;
2544;SDS011;36212;48.838;9.142;2023-03-13T10:02:27;1.52;;;1.42;;
2544;SDS011;36212;48.838;9.142;2023-03-13T10:05:29;1.65;;;1.40;;
2544;SDS011;36212;48.838;9.142;2023-03-13T10:08:16;3.78;;;1.70;;
2544;SDS011;36212;48.838;9.142;2023-03-13T10:11:02;1.80;;;1.70;;
2544;SDS011;36212;48.838;9.142;2023-03-13T10:14:05;1.67;;;1.58;;
2544;SDS011;36212;48.838;9.142;2023-03-13T10:17:01;1.95;;;1.70;;
2544;SDS011;36212;48.838;9.142;2023-03-13T10:19:43;2.20;;;2.00;;
2544;SDS011;36212;48.838;9.142;2023-03-13T10:22:26;3.95;;;2.00;;
2544;SDS011;36212;48.838;9.142;2023-03-13T10:25:03;1.85;;;1.75;;
2544;SDS011;36212;48.838;9.142;2023-03-13T10:27:53;2.65;;;2.35;;
2544;SDS011;36212;48.838;9.142;2023-03-13T10:30:31;1.70;;;1.60;;
2544;SDS011;36212;48.838;9.142;2023-03-13T10:33:17;2.60;;;1.80;;
2544;SDS011;36212;48.838;9.142;2023-03-13T10:44:11;2.05;;;1.95;;
2544;SDS011;36212;48.838;9.142;2023-03-13T10:46:52;1.85;;;1.75;;
2544;SDS011;36212;48.838;9.142;2023-03-13T10:49:32;1.80;;;1.70;;
2544;SDS011;36212;48.838;9.142;2023-03-13T10:52:53;4.00;;;2.03;;
2544;SDS011;36212;48.838;9.142;2023-03-13T10:55:21;2.40;;;1.90;;
2544;SDS011;36212;48.838;9.142;2023-03-13T10:58:01;3.00;;;1.90;;
2544;SDS011;36212;48.838;9.142;2023-03-13T11:00:48;1.83;;;1.73;;
2544;SDS011;36212;48.838;9.142;2023-03-13T11:03:25;1.80;;;1.70;;
2544;SDS011;36212;48.838;9.142;2023-03-13T11:06:04;2.00;;;1.77;;
2544;SDS011;36212;48.838;9.142;2023-03-13T11:09:03;2.13;;;2.03;;
2544;SDS011;36212;48.838;9.142;2023-03-13T11:11:49;1.92;;;1.83;;
2544;SDS011;36212;48.838;9.142;2023-03-13T11:14:40;2.22;;;2.08;;
2544;SDS011;36212;48.838;9.142;2023-03-13T11:17:21;2.33;;;2.13;;
2544;SDS011;36212;48.838;9.142;2023-03-13T11:26:22;1.73;;;1.63;;
2544;SDS011;36212;48.838;9.142;2023-03-13T11:29:18;1.70;;;1.60;;
2544;SDS011;36212;48.838;9.142;2023-03-13T11:32:06;1.70;;;1.60;;
2544;SDS011;36212;48.838;9.142;2023-03-13T11:38:27;1.57;;;1.47;;
2544;SDS011;36212;48.838;9.142;2023-03-13T11:47:42;3.00;;;2.07;;
2544;SDS011;36212;48.838;9.142;2023-03-13T11:56:50;2.17;;;1.83;;
2544;SDS011;36212;48.838;9.142;2023-03-13T11:59:39;1.93;;;1.80;;
2544;SDS011;36212;48.838;9.142;2023-03-13T12:02:33;1.70;;;1.60;;
2544;SDS011;36212;48.838;9.142;2023-03-13T12:05:23;2.10;;;1.93;;
2544;SDS011;36212;48.838;9.142;2023-03-13T12:08:11;1.80;;;1.70;;
2544;SDS011;36212;48.838;9.142;2023-03-13T12:14:30;1.63;;;1.50;;
2544;SDS011;36212;48.838;9.142;2023-03-13T12:17:08;2.97;;;1.90;;
2544;SDS011;36212;48.838;9.142;2023-03-13T12:20:03;3.10;;;1.90;;
2544;SDS011;36212;48.838;9.142;2023-03-13T12:22:53;1.70;;;1.60;;
2544;SDS011;36212;48.838;9.142;2023-03-13T12:25:55;2.10;;;1.73;;
2544;SDS011;36212;48.838;9.142;2023-03-13T12:31:52;1.80;;;1.70;;
2544;SDS011;36212;48.838;9.142;2023-03-13T12:38:00;2.07;;;1.87;;
2544;SDS011;36212;48.838;9.142;2023-03-13T12:56:34;1.97;;;1.50;;
2544;SDS011;36212;48.838;9.142;2023-03-13T12:59:40;2.70;;;1.63;;
2544;SDS011;36212;48.838;9.142;2023-03-13T13:02:22;1.70;;;1.60;;
2544;SDS011;36212;48.838;9.142;2023-03-13T13:04:59;1.60;;;1.23;;
2544;SDS011;36212;48.838;9.142;2023-03-13T13:07:34;4.67;;;1.60;;
2544;SDS011;36212;48.838;9.142;2023-03-13T13:16:01;1.60;;;1.50;;
2544;SDS011;36212;48.838;9.142;2023-03-13T13:18:50;2.00;;;1.60;;
2544;SDS011;36212;48.838;9.142;2023-03-13T13:21:23;1.93;;;1.50;;
2544;SDS011;36212;48.838;9.142;2023-03-13T13:24:38;1.70;;;1.40;;
2544;SDS011;36212;48.838;9.142;2023-03-13T13:38:56;3.23;;;1.27;;
2544;SDS011;36212;48.838;9.142;2023-03-13T13:41:33;1.70;;;1.57;;
2544;SDS011;36212;48.838;9.142;2023-03-13T13:44:20;2.23;;;1.30;;
2544;SDS011;36212;48.838;9.142;2023-03-13T13:46:57;1.77;;;1.20;;
2544;SDS011;36212;48.838;9.142;2023-03-13T13:49:32;2.20;;;1.40;;
2544;SDS011;36212;48.838;9.142;2023-03-13T13:52:32;1.53;;;1.43;;
2544;SDS011;36212;48.838;9.142;2023-03-13T13:55:29;1.73;;;1.20;;
2544;SDS011;36212;48.838;9.142;2023-03-13T13:58:16;1.83;;;1.30;;
2544;SDS011;36212;48.838;9.142;2023-03-13T14:01:00;3.00;;;1.47;;
2544;SDS011;36212;48.838;9.142;2023-03-13T14:03:45;1.87;;;1.63;;
2544;SDS011;36212;48.838;9.142;2023-03-13T14:06:27;2.17;;;1.20;;
2544;SDS011;36212;48.838;9.142;2023-03-13T14:15:08;1.40;;;1.30;;
2544;SDS011;36212;48.838;9.142;2023-03-13T14:17:51;1.40;;;1.30;;
2544;SDS011;36212;48.838;9.142;2023-03-13T14:20:36;1.90;;;1.40;;
2544;SDS011;36212;48.838;9.142;2023-03-13T14:26:17;2.07;;;1.30;;
2544;SDS011;36212;48.838;9.142;2023-03-13T14:28:57;1.87;;;1.00;;
2544;SDS011;36212;48.838;9.142;2023-03-13T14:31:52;3.37;;;1.47;;
2544;SDS011;36212;48.838;9.142;2023-03-13T14:34:28;1.40;;;1.30;;
2544;SDS011;36212;48.838;9.142;2023-03-13T14:37:03;2.40;;;1.00;;
2544;SDS011;36212;48.838;9.142;2023-03-13T14:43:00;1.97;;;1.30;;
2544;SDS011;36212;48.838;9.142;2023-03-13T14:45:47;1.87;;;1.17;;
2544;SDS011;36212;48.838;9.142;2023-03-13T14:48:21;7.67;;;1.40;;
2544;SDS011;36212;48.838;9.142;2023-03-13T14:51:14;1.20;;;1.10;;
2544;SDS011;36212;48.838;9.142;2023-03-13T14:53:57;1.50;;;1.40;;
2544;SDS011;36212;48.838;9.142;2023-03-13T14:56:36;2.30;;;1.40;;
2544;SDS011;36212;48.838;9.142;2023-03-13T14:59:18;2.37;;;1.53;;
2544;SDS011;36212;48.838;9.142;2023-03-13T15:02:11;2.30;;;1.27;;
2544;SDS011;36212;48.838;9.142;2023-03-13T15:07:39;2.20;;;1.30;;
2544;SDS011;36212;48.838;9.142;2023-03-13T15:10:18;1.43;;;1.33;;
2544;SDS011;36212;48.838;9.142;2023-03-13T15:13:32;1.97;;;1.43;;
2544;SDS011;36212;48.838;9.142;2023-03-13T15:16:17;1.47;;;1.30;;
2544;SDS011;36212;48.838;9.142;2023-03-13T15:18:54;1.30;;;1.20;;
2544;SDS011;36212;48.838;9.142;2023-03-13T15:21:28;1.40;;;1.30;;
2544;SDS011;36212;48.838;9.142;2023-03-13T15:24:12;1.57;;;1.47;;
2544;SDS011;36212;48.838;9.142;2023-03-13T15:26:45;2.07;;;1.53;;
2544;SDS011;36212;48.838;9.142;2023-03-13T15:29:20;1.63;;;1.53;;
2544;SDS011;36212;48.838;9.142;2023-03-13T15:31:54;2.37;;;1.37;;
2544;SDS011;36212;48.838;9.142;2023-03-13T15:34:26;3.03;;;1.73;;
2544;SDS011;36212;48.838;9.142;2023-03-13T15:37:03;2.43;;;1.30;;
2544;SDS011;36212;48.838;9.142;2023-03-13T15:39:40;2.23;;;1.60;;
2544;SDS011;36212;48.838;9.142;2023-03-13T15:42:13;1.73;;;1.33;;
2544;SDS011;36212;48.838;9.142;2023-03-13T15:44:46;1.57;;;1.47;;
2544;SDS011;36212;48.838;9.142;2023-03-13T15:47:19;1.40;;;1.30;;
2544;SDS011;36212;48.838;9.142;2023-03-13T15:49:53;2.50;;;1.47;;
2544;SDS011;36212;48.838;9.142;2023-03-13T15:52:25;1.50;;;1.40;;
2544;SDS011;36212;48.838;9.142;2023-03-13T15:55:00;1.40;;;1.30;;
2544;SDS011;36212;48.838;9.142;2023-03-13T15:57:39;2.27;;;1.30;;
2544;SDS011;36212;48.838;9.142;2023-03-13T16:00:21;2.23;;;1.60;;
2544;SDS011;36212;48.838;9.142;2023-03-13T16:02:57;1.50;;;1.40;;
2544;SDS011;36212;48.838;9.142;2023-03-13T16:05:30;2.70;;;1.40;;
2544;SDS011;36212;48.838;9.142;2023-03-13T16:08:03;1.40;;;1.30;;
2544;SDS011;36212;48.838;9.142;2023-03-13T16:10:35;2.90;;;1.70;;
2544;SDS011;36212;48.838;9.142;2023-03-13T16:13:08;1.83;;;1.53;;
2544;SDS011;36212;48.838;9.142;2023-03-13T16:15:41;1.40;;;1.30;;
2544;SDS011;36212;48.838;9.142;2023-03-13T16:18:17;1.63;;;1.53;;
2544;SDS011;36212;48.838;9.142;2023-03-13T16:20:53;2.87;;;1.70;;
2544;SDS011;36212;48.838;9.142;2023-03-13T16:23:25;1.60;;;1.50;;
2544;SDS011;36212;48.838;9.142;2023-03-13T16:25:58;3.93;;;1.70;;
2544;SDS011;36212;48.838;9.142;2023-03-13T16:28:30;1.70;;;1.60;;
2544;SDS011;36212;48.838;9.142;2023-03-13T16:31:03;1.37;;;1.27;;
2544;SDS011;36212;48.838;9.142;2023-03-13T16:33:42;1.90;;;1.77;;
2544;SDS011;36212;48.838;9.142;2023-03-13T16:36:16;1.97;;;1.60;;
2544;SDS011;36212;48.838;9.142;2023-03-13T16:38:52;3.83;;;1.23;;
2544;SDS011;36212;48.838;9.142;2023-03-13T16:41:25;1.57;;;1.47;;
2544;SDS011;36212;48.838;9.142;2023-03-13T16:43:59;2.07;;;1.33;;
2544;SDS011;36212;48.838;9.142;2023-03-13T16:46:34;2.50;;;1.70;;
2544;SDS011;36212;48.838;9.142;2023-03-13T16:49:12;2.73;;;1.53;;
2544;SDS011;36212;48.838;9.142;2023-03-13T16:51:46;1.50;;;1.40;;
2544;SDS011;36212;48.838;9.142;2023-03-13T16:54:19;1.60;;;1.50;;
2544;SDS011;36212;48.838;9.142;2023-03-13T16:56:51;3.67;;;1.57;;
2544;SDS011;36212;48.838;9.142;2023-03-13T16:59:24;1.90;;;1.60;;
2544;SDS011;36212;48.838;9.142;2023-03-13T17:01:57;1.63;;;1.53;;
2544;SDS011;36212;48.838;9.142;2023-03-13T17:04:30;1.50;;;1.40;;
2544;SDS011;36212;48.838;9.142;2023-03-13T17:07:04;2.10;;;1.40;;
2544;SDS011;36212;48.838;9.142;2023-03-13T17:09:51;1.83;;;1.73;;
2544;SDS011;36212;48.838;9.142;2023-03-13T17:12:24;2.80;;;1.90;;
2544;SDS011;36212;48.838;9.142;2023-03-13T17:14:57;2.13;;;1.60;;
2544;SDS011;36212;48.838;9.142;2023-03-13T17:17:29;2.50;;;1.43;;
2544;SDS011;36212;48.838;9.142;2023-03-13T17:20:03;1.67;;;1.43;;
2544;SDS011;36212;48.838;9.142;2023-03-13T17:22:43;6.00;;;1.70;;
2544;SDS011;36212;48.838;9.142;2023-03-13T17:25:16;4.70;;;2.00;;
2544;SDS011;36212;48.838;9.142;2023-03-13T17:27:48;2.10;;;1.90;;
2544;SDS011;36212;48.838;9.142;2023-03-13T17:32:57;3.60;;;2.00;;
2544;SDS011;36212;48.838;9.142;2023-03-13T17:35:30;3.03;;;2.73;;
2544;SDS011;36212;48.838;9.142;2023-03-13T17:38:02;2.00;;;1.90;;
2544;SDS011;36212;48.838;9.142;2023-03-13T17:40:35;2.10;;;2.00;;
2544;SDS011;36212;48.838;9.142;2023-03-13T17:43:08;3.10;;;2.60;;
2544;SDS011;36212;48.838;9.142;2023-03-13T17:45:42;3.03;;;2.83;;
2544;SDS011;36212;48.838;9.142;2023-03-13T17:48:15;2.90;;;2.63;;
2544;SDS011;36212;48.838;9.142;2023-03-13T17:50:47;2.90;;;2.30;;
2544;SDS011;36212;48.838;9.142;2023-03-13T17:53:20;2.87;;;2.30;;
2544;SDS011;36212;48.838;9.142;2023-03-13T17:55:52;3.00;;;2.80;;
2544;SDS011;36212;48.838;9.142;2023-03-13T17:58:25;6.10;;;2.87;;